createdAt,value
2019-02-04T00:00:30.816Z,32.57
2019-02-04T00:02:59.839Z,27.20
2019-02-04T00:05:28.462Z,29.77
2019-02-04T00:07:57.186Z,25.33
2019-02-04T00:10:25.811Z,28.07
2019-02-04T00:12:54.398Z,27.70
2019-02-04T00:15:23.026Z,23.17
2019-02-04T00:17:51.725Z,26.87
2019-02-04T00:20:20.334Z,31.60
2019-02-04T00:22:49.098Z,30.37
2019-02-04T00:25:17.724Z,26.73
2019-02-04T00:27:46.472Z,34.73
2019-02-04T00:30:20.651Z,24.87
2019-02-04T00:32:49.228Z,26.33
2019-02-04T00:35:17.848Z,27.70
2019-02-04T00:37:46.531Z,25.03
2019-02-04T00:40:24.318Z,27.83
2019-02-04T00:42:52.918Z,37.10
2019-02-04T00:45:21.618Z,33.13
2019-02-04T00:47:50.195Z,28.07
2019-02-04T00:50:20.604Z,31.13
2019-02-04T00:52:49.309Z,29.57
2019-02-04T00:55:17.929Z,29.30
2019-02-04T00:57:46.587Z,29.17
2019-02-04T01:00:18.823Z,28.17
2019-02-04T01:02:47.647Z,23.53
2019-02-04T01:05:18.886Z,27.13
2019-02-04T01:07:48.507Z,31.30
2019-02-04T01:10:22.831Z,24.70
2019-02-04T01:12:51.658Z,31.40
2019-02-04T01:15:20.458Z,25.40
2019-02-04T01:17:49.222Z,26.70
2019-02-04T01:20:20.782Z,26.60
2019-02-04T01:22:49.442Z,24.07
2019-02-04T01:25:18.336Z,27.27
2019-02-04T01:27:46.931Z,24.73
2019-02-04T01:30:23.010Z,23.27
2019-02-04T01:32:51.598Z,25.27
2019-02-04T01:35:20.436Z,23.70
2019-02-04T01:37:49.154Z,23.07
2019-02-04T01:40:20.659Z,28.00
2019-02-04T01:42:49.755Z,22.07
2019-02-04T01:45:18.430Z,26.33
2019-02-04T01:47:47.066Z,25.13
2019-02-04T01:50:18.013Z,26.87
2019-02-04T01:52:46.802Z,21.73
2019-02-04T01:55:15.656Z,22.50
2019-02-04T01:57:46.359Z,30.00
2019-02-04T02:00:20.731Z,21.57
2019-02-04T02:02:49.326Z,22.17
2019-02-04T02:05:17.925Z,22.03
2019-02-04T02:07:46.664Z,21.70
2019-02-04T02:10:20.617Z,23.10
2019-02-04T02:12:49.907Z,23.70
2019-02-04T02:15:19.037Z,24.87
2019-02-04T02:17:47.967Z,23.40
2019-02-04T02:20:21.912Z,23.20
2019-02-04T02:22:50.555Z,23.77
2019-02-04T02:25:19.298Z,24.70
2019-02-04T02:27:47.928Z,24.03
2019-02-04T02:30:22.475Z,26.60
2019-02-04T02:32:51.104Z,23.97
2019-02-04T02:35:19.691Z,24.70
2019-02-04T02:37:48.252Z,21.63
2019-02-04T02:40:22.678Z,27.10
2019-02-04T02:42:51.229Z,23.63
2019-02-04T02:45:20.184Z,22.00
2019-02-04T02:47:48.820Z,21.47
2019-02-04T02:50:17.744Z,22.97
2019-02-04T02:52:46.374Z,25.83
2019-02-04T02:55:17.304Z,19.03
2019-02-04T02:57:46.213Z,21.07
2019-02-04T03:00:18.047Z,23.30
2019-02-04T03:02:46.675Z,24.07
2019-02-04T03:05:16.703Z,20.50
2019-02-04T03:07:45.334Z,22.97
2019-02-04T03:10:17.147Z,24.40
2019-02-04T03:12:46.114Z,24.20
2019-02-04T03:15:14.942Z,19.80
2019-02-04T03:17:51.326Z,21.90
2019-02-04T03:20:14.951Z,20.87
2019-02-04T03:22:43.639Z,23.30
2019-02-04T03:25:14.404Z,21.97
2019-02-04T03:27:43.233Z,19.10
2019-02-04T03:30:14.969Z,22.07
2019-02-04T03:32:43.581Z,21.47
2019-02-04T03:35:12.577Z,18.67
2019-02-04T03:37:41.237Z,27.33
2019-02-04T03:40:18.846Z,23.23
2019-02-04T03:42:47.603Z,23.53
2019-02-04T03:45:17.780Z,19.83
2019-02-04T03:47:46.444Z,20.07
2019-02-04T03:50:15.229Z,22.90
2019-02-04T03:52:43.960Z,25.70
2019-02-04T03:55:15.167Z,19.87
2019-02-04T03:57:43.980Z,20.37
2019-02-04T04:00:18.218Z,22.20
2019-02-04T04:02:47.141Z,24.33
2019-02-04T04:05:16.044Z,21.53
2019-02-04T04:07:44.935Z,21.77
2019-02-04T04:10:14.129Z,27.03
2019-02-04T04:12:42.785Z,20.10
2019-02-04T04:15:13.449Z,21.90
2019-02-04T04:17:42.178Z,25.40
2019-02-04T04:20:13.886Z,22.67
2019-02-04T04:22:42.541Z,19.93
2019-02-04T04:25:13.701Z,22.37
2019-02-04T04:27:42.561Z,21.97
2019-02-04T04:30:14.265Z,24.50
2019-02-04T04:32:42.849Z,19.73
2019-02-04T04:35:11.945Z,20.30
2019-02-04T04:37:40.534Z,21.13
2019-02-04T04:40:11.535Z,21.27
2019-02-04T04:42:40.125Z,25.87
2019-02-04T04:45:11.693Z,22.07
2019-02-04T04:47:40.289Z,24.97
2019-02-04T04:50:09.786Z,29.03
2019-02-04T04:52:38.373Z,24.77
2019-02-04T04:55:10.681Z,24.30
2019-02-04T04:57:39.335Z,21.33
2019-02-04T05:00:10.982Z,26.73
2019-02-04T05:02:39.869Z,30.87
2019-02-04T05:05:10.870Z,25.07
2019-02-04T05:07:39.457Z,26.50
2019-02-04T05:10:16.471Z,22.57
2019-02-04T05:12:45.218Z,19.53
2019-02-04T05:15:19.782Z,24.87
2019-02-04T05:17:48.372Z,23.30
2019-02-04T05:20:17.868Z,25.60
2019-02-04T05:22:46.619Z,24.27
2019-02-04T05:25:16.011Z,24.93
2019-02-04T05:27:44.837Z,26.57
2019-02-04T05:30:15.874Z,23.30
2019-02-04T05:32:44.567Z,27.10
2019-02-04T05:35:13.480Z,22.20
2019-02-04T05:37:42.214Z,23.40
2019-02-04T05:40:18.121Z,25.10
2019-02-04T05:42:47.246Z,24.60
2019-02-04T05:45:18.241Z,27.00
2019-02-04T05:47:46.799Z,28.40
2019-02-04T05:50:17.662Z,24.93
2019-02-04T05:52:47.377Z,22.47
2019-02-04T05:55:17.405Z,21.47
2019-02-04T05:57:46.179Z,28.33
2019-02-04T06:00:23.120Z,26.23
2019-02-04T06:02:51.682Z,23.57
2019-02-04T06:05:20.706Z,26.77
2019-02-04T06:07:49.317Z,31.63
2019-02-04T06:10:18.209Z,33.07
2019-02-04T06:12:46.785Z,28.60
2019-02-04T06:15:16.827Z,25.60
2019-02-04T06:17:45.445Z,24.70
2019-02-04T06:20:19.941Z,22.73
2019-02-04T06:22:48.569Z,21.97
2019-02-04T06:25:17.229Z,25.90
2019-02-04T06:27:45.854Z,21.50
2019-02-04T06:30:16.089Z,25.07
2019-02-04T06:32:44.660Z,23.67
2019-02-04T06:35:14.677Z,26.20
2019-02-04T06:37:43.314Z,26.23
2019-02-04T06:40:16.677Z,25.03
2019-02-04T06:42:45.501Z,24.97
2019-02-04T06:45:16.399Z,20.73
2019-02-04T06:47:45.115Z,24.47
2019-02-04T06:50:16.405Z,23.17
2019-02-04T06:52:45.123Z,19.87
2019-02-04T06:55:19.648Z,27.27
2019-02-04T06:57:48.222Z,24.17
2019-02-04T07:00:19.973Z,20.23
2019-02-04T07:02:48.697Z,21.63
2019-02-04T07:05:18.097Z,22.10
2019-02-04T07:07:46.660Z,26.47
2019-02-04T07:10:21.074Z,23.57
2019-02-04T07:12:49.740Z,22.90
2019-02-04T07:15:18.410Z,25.20
2019-02-04T07:17:46.961Z,23.77
2019-02-04T07:20:24.137Z,23.50
2019-02-04T07:22:52.947Z,20.90
2019-02-04T07:25:22.381Z,21.43
2019-02-04T07:27:51.208Z,24.40
2019-02-04T07:30:24.858Z,22.83
2019-02-04T07:32:54.087Z,18.27
2019-02-04T07:35:23.027Z,27.53
2019-02-04T07:37:51.645Z,23.37
2019-02-04T07:40:22.946Z,21.00
2019-02-04T07:42:52.763Z,21.80
2019-02-04T07:45:21.409Z,21.40
2019-02-04T07:47:50.337Z,20.47
2019-02-04T07:50:18.931Z,24.30
2019-02-04T07:52:47.628Z,24.07
2019-02-04T07:55:16.209Z,16.67
2019-02-04T07:57:44.830Z,25.97
2019-02-04T08:00:16.435Z,23.30
2019-02-04T08:02:46.029Z,21.10
2019-02-04T08:05:14.931Z,23.10
2019-02-04T08:07:43.653Z,22.90
2019-02-04T08:10:14.561Z,24.23
2019-02-04T08:12:43.219Z,24.83
2019-02-04T08:15:17.389Z,19.57
2019-02-04T08:17:46.045Z,24.20
2019-02-04T08:20:15.249Z,17.33
2019-02-04T08:22:43.902Z,18.73
2019-02-04T08:25:14.694Z,16.67
2019-02-04T08:27:43.357Z,23.57
2019-02-04T08:30:23.683Z,17.63
2019-02-04T08:32:52.349Z,18.93
2019-02-04T08:35:21.078Z,17.70
2019-02-04T08:37:49.729Z,15.80
2019-02-04T08:40:19.485Z,17.63
2019-02-04T08:42:48.016Z,15.90
2019-02-04T08:45:17.026Z,18.70
2019-02-04T08:47:46.043Z,19.07
2019-02-04T08:50:25.602Z,16.57
2019-02-04T08:52:54.569Z,13.40
2019-02-04T08:55:23.207Z,17.90
2019-02-04T08:57:52.233Z,19.07
2019-02-04T09:00:24.784Z,17.13
2019-02-04T09:02:53.439Z,16.40
2019-02-04T09:05:23.439Z,18.33
2019-02-04T09:07:52.107Z,17.50
2019-02-04T09:10:26.533Z,14.87
2019-02-04T09:12:55.493Z,17.80
2019-02-04T09:15:24.045Z,17.67
2019-02-04T09:17:52.700Z,14.10
2019-02-04T09:20:21.393Z,18.17
2019-02-04T09:22:50.078Z,16.50
2019-02-04T09:25:23.694Z,16.47
2019-02-04T09:27:52.913Z,18.33
2019-02-04T09:30:26.257Z,17.87
2019-02-04T09:32:55.485Z,19.67
2019-02-04T09:35:24.373Z,17.17
2019-02-04T09:37:53.232Z,27.17
2019-02-04T09:40:36.670Z,17.90
2019-02-04T09:43:05.594Z,18.27
2019-02-04T09:45:34.221Z,15.10
2019-02-04T09:48:03.450Z,17.77
2019-02-04T09:50:37.927Z,15.50
2019-02-04T09:53:06.705Z,14.67
2019-02-04T09:55:37.297Z,13.93
2019-02-04T09:58:06.526Z,13.20
2019-02-04T10:00:36.321Z,15.13
2019-02-04T10:03:06.351Z,12.17
2019-02-04T10:05:35.337Z,14.23
2019-02-04T10:08:04.797Z,14.90
2019-02-04T10:10:33.624Z,13.10
2019-02-04T10:13:02.297Z,11.07
2019-02-04T10:15:39.600Z,12.07
2019-02-04T10:18:08.701Z,14.67
2019-02-04T10:20:37.571Z,10.70
2019-02-04T10:23:07.649Z,10.27
2019-02-04T10:25:39.279Z,10.37
2019-02-04T10:28:08.729Z,13.07
2019-02-04T10:30:37.530Z,14.33
2019-02-04T10:33:06.055Z,13.10
2019-02-04T10:35:34.926Z,14.50
2019-02-04T10:38:03.806Z,12.53
2019-02-04T10:40:32.459Z,10.83
2019-02-04T10:43:01.423Z,9.73
2019-02-04T10:45:30.132Z,10.07
2019-02-04T10:47:58.727Z,10.13
2019-02-04T10:50:45.083Z,11.53
2019-02-04T10:53:03.963Z,10.47
2019-02-04T10:55:32.661Z,11.00
2019-02-04T10:58:01.294Z,12.03
2019-02-04T11:00:32.658Z,9.03
2019-02-04T11:03:01.448Z,9.73
2019-02-04T11:05:32.486Z,10.00
2019-02-04T11:08:01.158Z,10.87
2019-02-04T11:10:34.382Z,11.73
2019-02-04T11:13:05.379Z,10.17
2019-02-04T11:15:33.974Z,10.37
2019-02-04T11:18:02.605Z,11.20
2019-02-04T11:20:32.949Z,11.03
2019-02-04T11:23:01.623Z,9.63
2019-02-04T11:25:30.275Z,13.07
2019-02-04T11:27:58.903Z,13.97
2019-02-04T11:30:30.346Z,15.20
2019-02-04T11:32:59.334Z,12.27
2019-02-04T11:35:27.989Z,12.03
2019-02-04T11:37:56.635Z,14.07
2019-02-04T11:40:30.801Z,10.23
2019-02-04T11:42:59.433Z,10.20
2019-02-04T11:45:28.867Z,12.47
2019-02-04T11:47:57.550Z,9.50
2019-02-04T11:50:26.239Z,10.07
2019-02-04T11:52:54.830Z,8.23
2019-02-04T11:55:23.522Z,8.00
2019-02-04T11:57:52.106Z,7.70
2019-02-04T12:00:25.876Z,8.30
2019-02-04T12:02:55.498Z,7.40
2019-02-04T12:05:24.434Z,8.15
2019-02-04T12:07:53.666Z,7.70
2019-02-04T12:10:27.994Z,7.50
2019-02-04T12:12:56.645Z,7.08
2019-02-04T12:15:25.939Z,8.23
2019-02-04T12:17:54.526Z,7.47
2019-02-04T12:20:23.232Z,7.22
2019-02-04T12:22:51.871Z,7.40
2019-02-04T12:25:25.618Z,7.33
2019-02-04T12:27:55.830Z,7.45
2019-02-04T12:30:31.141Z,7.70
2019-02-04T12:33:00.787Z,7.10
2019-02-04T12:35:29.695Z,6.85
2019-02-04T12:37:58.350Z,6.58
2019-02-04T12:40:27.746Z,6.42
2019-02-04T12:42:56.398Z,5.95
2019-02-04T12:45:27.962Z,6.05
2019-02-04T12:47:57.186Z,5.90
2019-02-04T12:50:25.812Z,5.22
2019-02-04T12:52:54.677Z,5.95
2019-02-04T12:55:30.627Z,5.40
2019-02-04T12:57:59.224Z,4.97
2019-02-04T13:00:32.026Z,6.45
2019-02-04T13:03:00.610Z,5.87
2019-02-04T13:05:32.579Z,4.70
2019-02-04T13:08:01.322Z,5.65
2019-02-04T13:10:29.934Z,5.05
2019-02-04T13:12:58.670Z,4.75
2019-02-04T13:15:27.373Z,4.92
2019-02-04T13:17:55.966Z,3.80
2019-02-04T13:20:24.658Z,4.37
2019-02-04T13:22:53.321Z,4.25
2019-02-04T13:25:24.952Z,3.85
2019-02-04T13:27:53.684Z,3.70
2019-02-04T13:30:27.433Z,3.47
2019-02-04T13:32:56.457Z,3.70
2019-02-04T13:35:25.199Z,4.12
2019-02-04T13:37:54.286Z,4.70
2019-02-04T13:40:27.309Z,3.40
2019-02-04T13:42:56.235Z,4.22
2019-02-04T13:45:25.341Z,3.87
2019-02-04T13:47:54.763Z,4.90
2019-02-04T13:50:24.157Z,4.53
2019-02-04T13:52:53.388Z,4.05
2019-02-04T13:55:27.270Z,3.87
2019-02-04T13:57:55.850Z,3.15
2019-02-04T14:00:27.222Z,4.37
2019-02-04T14:02:59.542Z,3.67
2019-02-04T14:05:30.947Z,3.47
2019-02-04T14:07:58.323Z,3.33
2019-02-04T14:10:32.526Z,3.52
2019-02-04T14:13:01.182Z,3.22
2019-02-04T14:15:30.278Z,3.83
2019-02-04T14:17:59.167Z,4.40
2019-02-04T14:20:27.790Z,2.80
2019-02-04T14:22:56.722Z,4.05
2019-02-04T14:25:25.424Z,3.83
2019-02-04T14:27:54.098Z,2.60
2019-02-04T14:30:31.879Z,2.87
2019-02-04T14:33:00.594Z,2.77
2019-02-04T14:35:29.324Z,3.20
2019-02-04T14:37:59.044Z,4.37
2019-02-04T14:40:27.680Z,2.95
2019-02-04T14:42:59.881Z,2.22
2019-02-04T14:45:53.380Z,2.60
2019-02-04T14:48:37.194Z,3.17
2019-02-04T14:51:31.854Z,4.10
2019-02-04T14:54:37.598Z,2.40
2019-02-04T14:57:19.253Z,2.77
2019-02-04T14:59:50.934Z,2.33
2019-02-04T15:02:31.337Z,4.53
2019-02-04T15:05:03.053Z,3.90
2019-02-04T15:07:55.834Z,3.17
2019-02-04T15:10:33.394Z,3.70
2019-02-04T15:13:39.868Z,4.03
2019-02-04T15:16:14.458Z,2.97
2019-02-04T15:19:08.754Z,4.50
2019-02-04T15:21:58.262Z,5.77
2019-02-04T15:24:56.658Z,4.90
2019-02-04T15:27:34.446Z,5.20
2019-02-04T15:30:33.715Z,3.97
2019-02-04T15:33:08.214Z,5.97
2019-02-04T15:35:58.018Z,5.20
2019-02-04T15:38:35.482Z,4.83
2019-02-04T15:41:09.804Z,5.37
2019-02-04T15:43:41.670Z,3.73
2019-02-04T15:46:16.025Z,4.97
2019-02-04T15:49:12.183Z,2.83
2019-02-04T15:51:42.802Z,3.57
2019-02-04T15:54:11.366Z,3.63
2019-02-04T15:56:39.951Z,4.80
2019-02-04T15:59:08.499Z,4.20
2019-02-04T16:01:37.122Z,4.13
2019-02-04T16:04:26.174Z,6.77
2019-02-04T16:06:54.763Z,5.20
2019-02-04T16:09:23.318Z,4.87
2019-02-04T16:11:51.930Z,6.20
2019-02-04T16:14:20.486Z,12.27
2019-02-04T16:16:49.438Z,9.50
2019-02-04T16:19:17.990Z,9.60
2019-02-04T16:21:46.591Z,7.83
2019-02-04T16:24:15.210Z,9.10
2019-02-04T16:26:43.802Z,12.63
2019-02-04T16:29:12.382Z,10.93
2019-02-04T16:31:41.007Z,17.57
2019-02-04T16:34:09.651Z,15.27
2019-02-04T16:36:38.202Z,11.77
2019-02-04T16:39:10.634Z,13.53
2019-02-04T16:41:39.262Z,11.17
2019-02-04T16:44:08.383Z,13.30
2019-02-04T16:46:37.078Z,13.83
2019-02-04T16:49:05.751Z,12.50
2019-02-04T16:51:34.380Z,10.13
2019-02-04T16:54:03.038Z,10.90
2019-02-04T16:56:31.662Z,12.57
2019-02-04T16:59:00.328Z,13.37
2019-02-04T17:01:29.141Z,13.37
2019-02-04T17:03:58.026Z,15.37
2019-02-04T17:06:26.586Z,19.30
2019-02-04T17:08:55.246Z,23.00
2019-02-04T17:11:23.803Z,18.87
2019-02-04T17:13:52.397Z,21.40
2019-02-04T17:16:20.953Z,17.97
2019-02-04T17:18:49.931Z,18.43
2019-02-04T17:21:18.653Z,15.50
2019-02-04T17:23:47.307Z,17.83
2019-02-04T17:26:15.858Z,14.97
2019-02-04T17:28:44.449Z,16.10
2019-02-04T17:31:12.995Z,16.33
2019-02-04T17:33:41.618Z,16.23
2019-02-04T17:36:10.242Z,16.87
2019-02-04T17:38:38.829Z,13.63
2019-02-04T17:41:07.742Z,20.73
2019-02-04T17:43:36.415Z,13.50
2019-02-04T17:46:05.292Z,17.07
2019-02-04T17:48:34.077Z,17.90
2019-02-04T17:51:02.840Z,17.40
2019-02-04T17:53:34.348Z,16.20
2019-02-04T17:56:02.514Z,14.07
2019-02-04T17:58:31.098Z,17.07
2019-02-04T18:00:59.647Z,19.53
2019-02-04T18:03:28.236Z,19.53
2019-02-04T18:05:57.195Z,17.40
2019-02-04T18:08:25.846Z,20.47
2019-02-04T18:10:54.413Z,17.57
2019-02-04T18:13:22.998Z,15.67
2019-02-04T18:15:51.739Z,15.77
2019-02-04T18:18:20.328Z,15.03
2019-02-04T18:20:49.186Z,16.47
2019-02-04T18:23:17.750Z,18.33
2019-02-04T18:25:46.346Z,15.17
2019-02-04T18:28:14.973Z,18.77
2019-02-04T18:30:43.635Z,16.37
2019-02-04T18:33:12.255Z,17.73
2019-02-04T18:35:41.238Z,20.47
2019-02-04T18:38:09.914Z,19.03
2019-02-04T18:40:38.500Z,25.73
2019-02-04T18:43:07.061Z,20.37
2019-02-04T18:45:36.187Z,21.93
2019-02-04T18:48:06.078Z,19.90
2019-02-04T18:50:34.866Z,18.97
2019-02-04T18:53:03.792Z,23.97
2019-02-04T18:55:33.815Z,22.27
2019-02-04T18:58:02.373Z,20.20
2019-02-04T19:00:32.719Z,18.97
2019-02-04T19:03:03.030Z,22.27
2019-02-04T19:05:31.847Z,17.80
2019-02-04T19:08:00.406Z,18.07
2019-02-04T19:10:29.138Z,20.83
2019-02-04T19:12:57.702Z,17.80
2019-02-04T19:15:28.062Z,18.43
2019-02-04T19:18:02.650Z,23.00
2019-02-04T19:20:31.315Z,18.63
2019-02-04T19:22:59.871Z,15.80
2019-02-04T19:25:28.587Z,18.30
2019-02-04T19:27:57.206Z,15.37
2019-02-04T19:30:41.479Z,18.20
2019-02-04T19:33:10.030Z,22.23
2019-02-04T19:35:38.690Z,18.23
2019-02-04T19:38:07.395Z,18.30
2019-02-04T19:40:35.997Z,18.17
2019-02-04T19:43:05.097Z,16.97
2019-02-04T19:45:34.153Z,18.40
2019-02-04T19:48:03.272Z,19.03
2019-02-04T19:50:34.290Z,22.73
2019-02-04T19:53:02.920Z,19.90
2019-02-04T19:55:31.588Z,25.87
2019-02-04T19:58:00.284Z,24.23
2019-02-04T20:00:29.353Z,25.57
2019-02-04T20:02:57.902Z,23.57
2019-02-04T20:05:31.382Z,18.73
2019-02-04T20:08:00.285Z,20.57
2019-02-04T20:10:32.059Z,19.80
2019-02-04T20:13:00.959Z,20.67
2019-02-04T20:15:31.290Z,17.07
2019-02-04T20:18:00.300Z,23.47
2019-02-04T20:20:29.415Z,23.27
2019-02-04T20:22:58.510Z,19.57
2019-02-04T20:25:29.710Z,21.30
2019-02-04T20:27:58.509Z,19.67
2019-02-04T20:30:45.365Z,23.63
2019-02-04T20:33:06.570Z,19.50
2019-02-04T20:35:35.227Z,23.93
2019-02-04T20:38:04.258Z,17.97
2019-02-04T20:40:32.843Z,21.13
2019-02-04T20:43:01.776Z,20.43
2019-02-04T20:45:30.611Z,18.67
2019-02-04T20:47:59.420Z,25.53
2019-02-04T20:50:33.927Z,23.47
2019-02-04T20:53:02.631Z,21.17
2019-02-04T20:55:31.295Z,22.60
2019-02-04T20:58:00.222Z,21.67
2019-02-04T21:00:30.255Z,18.77
2019-02-04T21:03:01.825Z,20.63
2019-02-04T21:05:29.390Z,24.50
2019-02-04T21:07:58.058Z,22.97
2019-02-04T21:10:30.754Z,20.53
2019-02-04T21:12:59.450Z,19.73
2019-02-04T21:15:28.144Z,24.60
2019-02-04T21:17:56.673Z,22.70
2019-02-04T21:20:29.308Z,21.00
2019-02-04T21:22:57.954Z,16.20
2019-02-04T21:25:26.778Z,22.23
2019-02-04T21:27:55.413Z,20.53
2019-02-04T21:30:32.849Z,19.87
2019-02-04T21:33:01.474Z,18.40
2019-02-04T21:35:30.059Z,26.37
2019-02-04T21:37:58.606Z,18.73
2019-02-04T21:40:27.663Z,21.53
2019-02-04T21:42:56.222Z,22.13
2019-02-04T21:45:26.155Z,21.97
2019-02-04T21:47:55.075Z,17.43
2019-02-04T21:50:29.111Z,16.07
2019-02-04T21:52:58.598Z,18.80
2019-02-04T21:55:27.554Z,17.07
2019-02-04T21:57:56.176Z,21.13
2019-02-04T22:00:28.459Z,18.60
2019-02-04T22:02:57.078Z,19.83
2019-02-04T22:05:28.111Z,21.07
2019-02-04T22:07:56.806Z,20.10
2019-02-04T22:10:27.535Z,20.80
2019-02-04T22:12:56.167Z,24.37
2019-02-04T22:15:25.190Z,21.53
2019-02-04T22:17:53.750Z,28.20
2019-02-04T22:20:23.069Z,21.33
2019-02-04T22:22:52.667Z,22.93
2019-02-04T22:25:23.187Z,19.97
2019-02-04T22:27:51.887Z,18.27
2019-02-04T22:30:28.669Z,20.47
2019-02-04T22:32:57.291Z,17.27
2019-02-04T22:35:25.923Z,17.83
2019-02-04T22:37:54.623Z,19.57
2019-02-04T22:40:25.452Z,21.23
2019-02-04T22:42:54.007Z,14.27
2019-02-04T22:45:22.824Z,19.17
2019-02-04T22:47:51.722Z,19.53
2019-02-04T22:50:22.243Z,15.00
2019-02-04T22:52:51.134Z,19.73
2019-02-04T22:55:31.003Z,16.50
2019-02-04T22:57:50.927Z,15.83
2019-02-04T23:00:51.479Z,17.17
2019-02-04T23:03:26.134Z,18.33
2019-02-04T23:05:54.727Z,14.80
2019-02-04T23:08:23.282Z,18.47
2019-02-04T23:10:51.934Z,17.67
2019-02-04T23:13:20.481Z,21.17
2019-02-04T23:15:49.066Z,19.17
2019-02-04T23:18:17.620Z,14.60
2019-02-04T23:20:46.199Z,17.67
2019-02-04T23:23:14.750Z,17.67
2019-02-04T23:25:43.949Z,14.40
2019-02-04T23:28:12.659Z,16.53
2019-02-04T23:30:41.314Z,14.60
2019-02-04T23:33:09.892Z,14.67
2019-02-04T23:35:38.522Z,13.87
2019-02-04T23:38:07.211Z,17.47
2019-02-04T23:40:35.861Z,15.97
2019-02-04T23:43:05.046Z,14.03
2019-02-04T23:45:33.630Z,15.27
2019-02-04T23:48:02.463Z,16.83
2019-02-04T23:50:31.106Z,14.83
2019-02-04T23:52:59.659Z,14.97
2019-02-04T23:55:28.233Z,14.77
2019-02-04T23:57:57.054Z,22.37
